EW9436 Weather Reports


Display with metric or nautical units.
time (UTC)temp
F
wind
direction
speed
MPH
gust
MPH
rain 1hr
in
rain 24hr
in
rain mn
in
humidity
%
barometer
mb
20210923053530 70 154 4.0 7.0 0.00 0.00 0.00 92 1022.8
20210923052629 70 140 4.0 6.0 0.00 0.00 0.00 92 1023.0
20210923052528 70 159 6.0 13.0 0.00 0.00 0.00 92 1022.9
20210923052429 70 148 6.0 9.0 0.00 0.00 0.00 92 1022.9
20210923051430 70 155 6.0 12.0 0.00 0.00 0.00 92 1022.9
20210923050528 70 139 6.0 11.0 0.00 0.00 0.00 92 1022.9
20210923050428 70 138 6.0 8.0 0.00 0.00 0.00 91 1022.9
20210923050330 70 153 5.0 10.0 0.00 0.00 0.00 92 1023.0
20210923045328 70 148 7.0 11.0 0.00 0.00 0.00 92 1022.9
20210923044330 70 154 6.0 9.0 0.00 0.00 0.00 92 1022.9
20210923043230 70 157 7.0 11.0 0.00 0.00 0.00 92 1022.9
20210923042231 70 152 7.0 11.0 0.00 0.00 0.00 91 1023.1
20210923042132 70 152 6.0 11.0 0.00 0.00 0.00 91 1022.9
20210923041131 70 157 5.0 9.0 0.00 0.00 0.00 90 1023.0
20210923040227 70 156 4.0 5.0 0.00 0.00 0.00 89 1023.2
20210923040128 70 155 6.0 12.0 0.00 0.00 0.00 89 1023.2
20210923040012 70 156 3.0 5.0 0.00 0.00 0.00 89 1023.0
20210923035912 71 157 4.0 8.0 0.00 0.00 0.00 89 1023.0
20210923035011 70 133 5.0 8.0 0.00 0.00 0.00 88 1023.0
20210923034011 70 159 6.0 11.0 0.00 0.00 0.00 88 1023.0
20210923033110 70 154 4.0 7.0 0.00 0.00 0.00 88 1023.0
20210923033014 70 154 3.0 6.0 0.00 0.00 0.00 88 1022.9
20210923032010 70 130 4.0 6.0 0.00 0.00 0.00 88 1023.0
20210923031910 70 150 4.0 7.0 0.00 0.00 0.00 87 1023.1
20210923031810 70 150 4.0 7.0 0.00 0.00 0.00 88 1023.0
20210923030811 70 151 6.0 8.0 0.00 0.00 0.00 88 1023.1
20210923025810 70 150 7.0 10.0 0.00 0.00 0.00 88 1022.9
20210923025712 70 153 5.0 7.0 0.00 0.00 0.00 89 1023.0
20210923025613 70 146 5.0 10.0 0.00 0.00 0.00 89 1023.0
20210923025511 70 151 6.0 11.0 0.00 0.00 0.00 88 1023.1
20210923025411 70 158 4.0 6.0 0.00 0.00 0.00 89 1023.0
20210923024510 70 159 4.0 6.0 0.00 0.00 0.00 89 1023.0
20210923023514 70 161 5.0 9.0 0.00 0.00 0.00 90 1023.1
20210923022511 70 157 5.0 10.0 0.00 0.00 0.00 90 1023.2
20210923022411 70 144 5.0 7.0 0.00 0.00 0.00 89 1023.1
20210923022312 70 149 6.0 9.0 0.00 0.00 0.00 90 1023.1
20210923021311 70 155 5.0 8.0 0.00 0.00 0.00 90 1023.2
20210923021210 70 153 6.0 11.0 0.00 0.00 0.00 90 1023.2
20210923020212 70 156 3.0 4.0 0.00 0.00 0.00 90 1023.1
20210923020112 70 159 5.0 8.0 0.00 0.00 0.00 90 1023.1
20210923020012 70 156 4.0 6.0 0.00 0.00 0.00 90 1023.2
20210923015911 70 156 4.0 6.0 0.00 0.00 0.00 90 1023.3
20210923015009 70 161 4.0 8.0 0.00 0.00 0.00 90 1023.2
20210923014912 70 145 5.0 10.0 0.00 0.00 0.00 91 1023.1
20210923014810 70 154 5.0 7.0 0.00 0.00 0.00 91 1023.2
20210923014712 70 154 5.0 7.0 0.00 0.00 0.00 91 1023.2
20210923013710 70 152 5.0 10.0 0.00 0.00 0.00 91 1023.4
20210923012809 70 159 4.0 6.0 0.00 0.00 0.00 92 1023.3
20210923012712 70 160 4.0 6.0 0.00 0.00 0.00 91 1023.2
20210923012611 70 159 5.0 7.0 0.00 0.01 0.00 92 1023.2
20210923011613 70 149 4.0 5.0 0.00 0.02 0.00 92 1023.3
20210923010610 70 146 4.0 6.0 0.00 0.04 0.00 92 1023.2
20210923005609 70 159 5.0 7.0 0.00 0.04 0.00 93 1023.2
20210923005510 70 160 5.0 9.0 0.00 0.04 0.00 92 1023.0
20210923005410 70 152 4.0 6.0 0.00 0.04 0.00 93 1023.2
20210923004410 70 154 5.0 9.0 0.00 0.04 0.00 92 1023.3
20210923004309 70 157 5.0 8.0 0.00 0.04 0.00 93 1023.2
20210923003313 71 146 2.0 5.0 0.00 0.04 0.00 93 1023.3
20210923003209 71 157 3.0 7.0 0.00 0.04 0.00 92 1023.2
20210923002213 71 149 4.0 7.0 0.00 0.05 0.00 93 1023.3
20210923001310 71 152 4.0 5.0 0.00 0.05 0.00 92 1023.2
20210923001213 71 146 4.0 6.0 0.00 0.05 0.00 93 1023.3
20210923000310 71 163 6.0 10.0 0.00 0.05 0.00 93 1023.1
20210923000212 71 156 6.0 8.0 0.00 0.05 0.00 92 1023.2
20210922235210 71 158 5.0 8.0 0.00 0.05 0.00 93 1023.0
20210922235110 71 155 4.0 6.0 0.00 0.05 0.00 93 1023.1
20210922234111 71 154 5.0 7.0 0.00 0.06 0.00 93 1023.1
20210922234010 71 158 3.0 5.0 0.00 0.06 0.00 93 1023.0
20210922233912 71 160 4.0 6.0 0.00 0.06 0.00 92 1023.1
20210922232912 71 159 5.0 7.0 0.00 0.06 0.00 92 1023.1
20210922232011 71 148 5.0 9.0 0.00 0.06 0.00 92 1023.0
20210922231912 71 159 5.0 8.0 0.00 0.06 0.00 91 1023.0
20210922230912 71 158 4.0 5.0 0.00 0.06 0.00 92 1023.0
20210922230811 71 159 4.0 5.0 0.00 0.06 0.00 92 1023.0
20210922230709 71 158 5.0 8.0 0.00 0.06 0.00 91 1022.9
20210922230612 71 154 5.0 7.0 0.00 0.06 0.00 91 1022.8
20210922225612 71 158 6.0 9.0 0.00 0.06 0.00 90 1022.9
20210922224710 72 158 5.0 8.0 0.00 0.06 0.00 91 1022.8
20210922223712 72 159 8.0 13.0 0.00 0.06 0.00 89 1022.6
20210922222710 72 160 8.0 12.0 0.00 0.06 0.00 88 1022.7
20210922221710 72 152 5.0 10.0 0.00 0.06 0.00 89 1022.8
20210922220714 73 156 5.0 9.0 0.00 0.06 0.00 87 1022.7
20210922220611 73 148 5.0 9.0 0.00 0.06 0.00 88 1022.7
20210922220512 73 161 6.0 9.0 0.00 0.06 0.00 88 1022.8
20210922215510 73 155 5.0 10.0 0.00 0.06 0.00 88 1022.7
20210922215413 73 157 7.0 11.0 0.00 0.06 0.00 88 1022.7
20210922215312 73 155 9.0 16.0 0.00 0.06 0.00 88 1022.9
20210922214312 73 165 5.0 8.0 0.00 0.06 0.00 87 1023.0
20210922214212 73 162 5.0 10.0 0.00 0.06 0.00 87 1022.9
20210922214111 73 154 5.0 8.0 0.00 0.06 0.00 87 1023.0
20210922213110 74 160 6.0 9.0 0.00 0.06 0.00 87 1022.9
20210922213010 74 161 8.0 13.0 0.00 0.06 0.00 86 1022.9
20210922212912 74 164 8.0 12.0 0.00 0.06 0.00 86 1022.8
20210922212810 74 163 6.0 11.0 0.00 0.06 0.00 86 1022.7
20210922211910 74 159 7.0 12.0 0.00 0.06 0.00 86 1022.8
20210922211811 74 161 7.0 10.0 0.00 0.06 0.00 86 1022.8
20210922211712 74 153 6.0 8.0 0.00 0.06 0.00 85 1022.9
20210922210809 74 156 9.0 12.0 0.00 0.06 0.00 84 1022.8
20210922210713 74 164 10.0 17.0 0.00 0.06 0.00 84 1022.8
20210922210610 74 160 4.0 6.0 0.00 0.06 0.00 85 1022.9
20210922210512 74 161 5.0 9.0 0.00 0.06 0.00 84 1022.9
20210922205511 74 158 5.0 8.0 0.00 0.06 0.00 83 1023.0
20210922205412 74 164 6.0 12.0 0.00 0.06 0.00 83 1023.0
20210922204410 75 155 6.0 8.0 0.00 0.06 0.00 81 1022.9
20210922203411 75 144 8.0 12.0 0.00 0.06 0.00 81 1022.9
20210922202411 75 161 7.0 10.0 0.00 0.06 0.00 80 1023.0
20210922201412 75 159 11.0 14.0 0.00 0.06 0.00 79 1023.1
20210922200412 76 160 5.0 8.0 0.00 0.06 0.00 79 1023.3
20210922195510 76 157 10.0 15.0 0.00 0.06 0.00 80 1023.3
20210922195411 76 160 9.0 18.0 0.00 0.06 0.00 80 1023.2
20210922194410 76 167 10.0 16.0 0.00 0.06 0.00 80 1023.3
20210922194311 76 168 7.0 11.0 0.00 0.06 0.00 79 1023.4
20210922193310 76 158 10.0 16.0 0.00 0.06 0.00 79 1023.3
20210922192312 76 158 7.0 12.0 0.00 0.06 0.00 78 1023.5
20210922191312 76 160 7.0 10.0 0.00 0.06 0.00 79 1023.6
20210922191211 76 157 5.0 13.0 0.00 0.06 0.00 78 1023.7
20210922190210 76 161 11.0 17.0 0.00 0.06 0.00 78 1023.7
20210922190109 76 153 6.0 12.0 0.00 0.06 0.00 78 1023.8
20210922190011 77 164 14.0 19.0 0.00 0.06 0.00 78 1023.8
20210922185012 77 140 6.0 14.0 0.00 0.06 0.00 78 1023.9
20210922184109 77 153 5.0 9.0 0.00 0.06 0.00 78 1024.0
20210922183113 77 146 10.0 18.0 0.00 0.06 0.00 79 1024.1
20210922182211 77 164 4.0 10.0 0.00 0.06 0.00 78 1024.1
20210922181310 77 161 7.0 10.0 0.00 0.06 0.00 78 1024.2
20210922180311 77 158 10.0 13.0 0.00 0.06 0.00 79 1024.2
20210922175309 77 149 6.0 10.0 0.00 0.06 0.00 79 1024.4
20210922174311 76 159 8.0 16.0 0.00 0.06 0.00 79 1024.4
20210922174209 76 164 10.0 18.0 0.00 0.06 0.00 80 1024.5
20210922173212 76 156 7.0 10.0 0.00 0.06 0.00 80 1024.5
20210922173112 76 157 8.0 12.0 0.00 0.06 0.00 80 1024.5
20210922173011 76 153 6.0 13.0 0.00 0.06 0.00 81 1024.5
20210922172011 76 154 7.0 11.0 0.00 0.06 0.00 81 1024.7
20210922171910 76 160 11.0 15.0 0.00 0.06 0.00 80 1024.7
20210922171810 76 152 10.0 16.0 0.00 0.06 0.00 81 1024.8
20210922171711 76 166 9.0 15.0 0.00 0.06 0.00 81 1024.8
20210922170711 76 171 7.0 11.0 0.00 0.06 0.00 80 1024.9
20210922165711 76 158 8.0 13.0 0.00 0.06 0.00 81 1025.1
20210922164710 76 159 5.0 13.0 0.00 0.06 0.00 82 1025.1
20210922163711 75 153 8.0 15.0 0.00 0.06 0.00 82 1025.3
20210922162810 75 153 7.0 11.0 0.00 0.06 0.00 83 1025.4
20210922161909 75 156 9.0 17.0 0.00 0.06 0.00 82 1025.4
20210922161811 75 150 5.0 7.0 0.00 0.06 0.00 82 1025.4
20210922161711 75 158 9.0 14.0 0.00 0.06 0.00 82 1025.5
20210922160811 75 146 7.0 14.0 0.00 0.06 0.00 81 1025.6
20210922160711 75 159 11.0 16.0 0.00 0.06 0.00 81 1025.6
20210922160610 75 161 12.0 18.0 0.00 0.06 0.00 81 1025.6
20210922160510 75 157 8.0 15.0 0.00 0.06 0.00 80 1025.7
20210922155510 76 159 11.0 18.0 0.00 0.06 0.00 81 1025.8
20210922155410 75 159 11.0 19.0 0.00 0.06 0.00 81 1025.8
20210922154411 75 164 5.0 10.0 0.00 0.06 0.00 81 1026.0
20210922154310 75 159 7.0 14.0 0.00 0.06 0.00 81 1026.0
20210922154212 75 163 10.0 17.0 0.00 0.06 0.00 81 1026.1
20210922153212 75 154 8.0 14.0 0.00 0.06 0.00 80 1026.1
20210922153111 75 156 11.0 18.0 0.00 0.06 0.00 80 1026.1
20210922152109 75 156 6.0 9.0 0.00 0.06 0.00 81 1026.1
20210922151109 75 159 10.0 15.0 0.00 0.06 0.00 81 1026.1
20210922150110 75 150 7.0 14.0 0.00 0.06 0.00 81 1026.1
20210922150010 75 158 10.0 17.0 0.00 0.06 0.00 81 1026.2
20210922145010 75 146 5.0 10.0 0.00 0.06 0.00 80 1026.4
20210922144011 75 151 6.0 10.0 0.00 0.06 0.00 81 1026.4
20210922143911 75 158 6.0 10.0 0.00 0.06 0.00 81 1026.3
20210922142910 74 158 9.0 13.0 0.00 0.06 0.00 81 1026.5
20210922142811 74 155 7.0 12.0 0.00 0.06 0.00 82 1026.5
20210922141909 74 161 11.0 17.0 0.00 0.06 0.00 83 1026.6
20210922141811 74 160 11.0 14.0 0.00 0.06 0.00 83 1026.5
20210922140811 74 155 3.0 5.0 0.00 0.06 0.00 84 1026.7
20210922140710 74 139 5.0 8.0 0.00 0.06 0.00 84 1026.6
20210922140609 74 139 6.0 10.0 0.00 0.06 0.00 84 1026.6
20210922135613 73 140 6.0 11.0 0.00 0.06 0.00 85 1026.8
20210922135510 73 160 7.0 10.0 0.00 0.06 0.00 84 1026.7
20210922135411 73 161 7.0 11.0 0.00 0.06 0.00 85 1026.8
20210922134410 73 156 7.0 11.0 0.00 0.06 0.00 84 1026.6
20210922134312 73 135 6.0 10.0 0.00 0.06 0.00 85 1026.6
20210922134210 74 160 9.0 15.0 0.00 0.06 0.00 85 1026.7
20210922133211 74 159 8.0 12.0 0.00 0.06 0.00 86 1026.7
20210922132211 73 143 6.0 13.0 0.00 0.06 0.00 87 1026.7
20210922131309 73 159 5.0 8.0 0.00 0.06 0.00 88 1026.6
20210922131210 73 155 8.0 14.0 0.00 0.06 0.00 87 1026.6
20210922130210 73 149 4.0 7.0 0.00 0.06 0.00 88 1026.6
20210922125211 73 156 8.0 15.0 0.00 0.06 0.00 87 1026.6
20210922124310 73 134 4.0 7.0 0.00 0.06 0.00 89 1026.6
20210922124209 73 132 5.0 8.0 0.00 0.06 0.00 88 1026.5
20210922123210 72 155 6.0 11.0 0.00 0.06 0.00 89 1026.6
20210922123111 72 137 4.0 12.0 0.00 0.06 0.00 90 1026.5
20210922123011 72 130 5.0 9.0 0.00 0.06 0.00 90 1026.5
20210922122909 72 135 6.0 12.0 0.00 0.06 0.00 91 1026.6
20210922122812 72 139 4.0 6.0 0.00 0.06 0.00 91 1026.6
20210922122711 72 134 4.0 9.0 0.00 0.06 0.00 91 1026.6
20210922122611 72 134 4.0 8.0 0.00 0.06 0.00 91 1026.5
20210922122511 72 141 5.0 8.0 0.00 0.06 0.00 91 1026.5
20210922122410 72 155 7.0 10.0 0.00 0.06 0.00 90 1026.6
20210922122309 72 131 4.0 9.0 0.00 0.06 0.00 91 1026.6
20210922121409 72 138 4.0 8.0 0.00 0.06 0.00 90 1026.6
20210922120412 72 137 9.0 16.0 0.00 0.06 0.00 92 1026.6
20210922120310 72 153 5.0 8.0 0.00 0.06 0.00 92 1026.6
20210922115312 71 141 4.0 7.0 0.00 0.06 0.00 93 1026.8
20210922114409 70 128 5.0 8.0 0.00 0.06 0.00 94 1026.8
20210922114310 70 125 6.0 10.0 0.00 0.06 0.00 93 1026.8
20210922114211 70 164 4.0 8.0 0.00 0.06 0.00 94 1026.8
20210922114111 70 128 3.0 6.0 0.00 0.06 0.00 94 1026.8
20210922113110 70 128 4.0 6.0 0.00 0.06 0.00 94 1026.8
20210922112111 69 125 4.0 6.0 0.00 0.06 0.00 96 1026.8
20210922112010 69 140 4.0 7.0 0.00 0.06 0.00 96 1026.8
20210922111011 69 128 4.0 7.0 0.00 0.06 0.00 95 1027.0
20210922110909 69 136 3.0 5.0 0.00 0.06 0.00 95 1027.0
20210922110811 69 150 3.0 5.0 0.00 0.06 0.00 96 1026.9
20210922110711 69 135 3.0 6.0 0.00 0.06 0.00 96 1026.8
20210922110611 69 147 4.0 5.0 0.00 0.06 0.00 96 1026.8
20210922105609 68 155 3.0 6.0 0.00 0.06 0.00 96 1027.0
20210922105509 68 149 3.0 5.0 0.00 0.06 0.00 96 1027.0
20210922105410 68 140 4.0 7.0 0.00 0.06 0.00 96 1027.0
20210922104412 68 148 2.0 4.0 0.00 0.06 0.00 96 1026.9
20210922103509 68 118 4.0 7.0 0.00 0.06 0.00 96 1026.8
20210922102512 68 138 2.0 3.0 0.00 0.06 0.00 96 1027.0
20210922102409 68 131 3.0 7.0 0.00 0.06 0.00 96 1027.0
20210922102311 68 146 3.0 5.0 0.00 0.06 0.00 96 1027.0
20210922101410 68 146 3.0 4.0 0.00 0.06 0.00 96 1027.1
20210922101310 68 145 2.0 3.0 0.00 0.06 0.00 96 1027.0
20210922101210 68 149 2.0 3.0 0.00 0.06 0.00 96 1027.0
20210922100210 68 142 2.0 4.0 0.00 0.06 0.00 96 1027.0
20210922100110 68 142 3.0 5.0 0.00 0.06 0.00 96 1027.0
20210922095113 68 150 3.0 5.0 0.00 0.06 0.00 97 1027.0
20210922094111 68 149 2.0 3.0 0.00 0.06 0.00 97 1027.2
20210922093110 68 156 3.0 5.0 0.00 0.06 0.00 96 1027.3
20210922092110 68 142 3.0 6.0 0.00 0.06 0.00 97 1027.4
20210922091112 68 162 3.0 5.0 0.00 0.06 0.00 97 1027.4